Time;durP1;ratioP1;P1;durP2;ratioP2;P2;SDS_P1;SDS_P2;PMS_P1;PMS_P2;Temp;Humidity;BMP_temperature;BMP_pressure;BME280_temperature;BME280_humidity;BME280_pressure;Samples;Min_cycle;Max_cycle;Signal;HPM_P1;HPM_P2
2021/03/30 00:01:14;;;;;;;13.68;8.27;;;;;;;14.48;71.22;101940.94;5086733;28;20046;-67
2021/03/30 00:03:41;;;;;;;14.13;7.75;;;;;;;14.47;71.15;101940.03;5084963;28;20037;-67
2021/03/30 00:06:09;;;;;;;15.80;7.95;;;;;;;14.46;71.27;101929.38;5086124;28;20036;-67
2021/03/30 00:08:37;;;;;;;18.08;7.35;;;;;;;14.52;71.04;101922.41;5082340;28;20153;-67
2021/03/30 00:11:04;;;;;;;14.07;7.40;;;;;;;14.53;70.83;101924.19;5085224;28;20127;-67
2021/03/30 00:13:31;;;;;;;16.17;7.40;;;;;;;14.52;70.69;101918.84;5083535;28;20042;-67
2021/03/30 00:15:58;;;;;;;13.43;7.03;;;;;;;14.49;70.71;101922.38;5084271;28;20036;-67
2021/03/30 00:18:25;;;;;;;14.23;7.63;;;;;;;14.49;70.67;101922.38;5082944;28;20040;-67
2021/03/30 00:20:53;;;;;;;17.08;7.78;;;;;;;14.48;70.52;101919.66;5087700;28;20056;-67
2021/03/30 00:23:20;;;;;;;13.95;7.65;;;;;;;14.48;70.37;101909.03;5092424;28;20122;-67
2021/03/30 00:25:48;;;;;;;16.20;7.75;;;;;;;14.45;70.47;101914.28;5085727;28;20063;-67
2021/03/30 00:28:15;;;;;;;14.57;7.93;;;;;;;14.40;70.41;101908.00;5081253;28;20044;-67
2021/03/30 00:30:43;;;;;;;14.45;9.10;;;;;;;14.37;70.40;101895.53;5083173;28;20055;-67
2021/03/30 00:33:09;;;;;;;11.05;7.25;;;;;;;14.36;70.50;101899.06;5087498;28;20850;-67
2021/03/30 00:35:36;;;;;;;14.55;7.18;;;;;;;14.35;70.49;101891.94;5081625;28;20051;-67
2021/03/30 00:38:03;;;;;;;11.40;6.88;;;;;;;14.37;70.48;101890.22;5079303;28;20085;-67
2021/03/30 00:40:31;;;;;;;17.38;8.75;;;;;;;14.35;70.52;101882.22;5085630;28;20055;-67
2021/03/30 00:42:59;;;;;;;14.02;7.60;;;;;;;14.38;70.49;101881.41;5081855;28;20957;-67
2021/03/30 00:45:26;;;;;;;17.73;9.00;;;;;;;14.35;70.59;101881.31;5081017;28;21659;-67
2021/03/30 00:47:54;;;;;;;18.15;7.53;;;;;;;14.37;70.72;101874.28;5083543;28;20082;-67
2021/03/30 00:50:23;;;;;;;12.98;8.18;;;;;;;14.33;70.94;101873.31;5082275;28;20040;-67
2021/03/30 00:52:52;;;;;;;16.35;8.35;;;;;;;14.29;71.22;101871.50;5083247;28;20036;-67
2021/03/30 00:55:19;;;;;;;11.57;7.53;;;;;;;14.27;71.40;101867.91;5082670;28;20444;-66
2021/03/30 00:57:46;;;;;;;16.17;8.23;;;;;;;14.31;71.45;101875.03;5081488;27;20119;-67
2021/03/30 01:00:17;;;;;;;13.63;8.73;;;;;;;14.37;71.46;101863.66;5084352;28;20515;-67
2021/03/30 01:02:45;;;;;;;12.88;8.50;;;;;;;14.38;71.52;101869.88;5084459;28;20040;-67
2021/03/30 01:05:14;;;;;;;13.18;7.78;;;;;;;14.38;71.09;101861.91;5084710;28;20079;-67
2021/03/30 01:07:56;;;;;;;15.63;7.03;;;;;;;14.34;70.57;101858.28;5081431;28;20036;-67
2021/03/30 01:10:39;;;;;;;16.40;8.20;;;;;;;14.27;69.99;101864.34;5080725;28;20032;-67
2021/03/30 01:13:22;;;;;;;10.68;6.40;;;;;;;14.23;69.56;101862.50;5084144;28;20036;-67
2021/03/30 01:15:58;;;;;;;13.38;6.80;;;;;;;14.18;69.15;101859.75;5088559;28;20028;-67
2021/03/30 01:18:29;;;;;;;15.30;7.18;;;;;;;14.15;68.94;101856.16;5087234;28;20053;-66
2021/03/30 01:21:31;;;;;;;12.40;6.97;;;;;;;14.12;68.60;101854.31;5089608;28;20036;-67
2021/03/30 01:24:03;;;;;;;12.60;6.68;;;;;;;14.08;68.48;101859.56;5090088;28;20127;-67
2021/03/30 01:26:49;;;;;;;14.85;7.65;;;;;;;14.04;68.59;101858.63;5091361;28;20404;-67
2021/03/30 01:29:24;;;;;;;15.40;7.28;;;;;;;14.02;68.77;101849.72;5089169;28;20058;-67
2021/03/30 01:31:56;;;;;;;13.25;6.55;;;;;;;14.02;68.81;101851.47;5086957;28;20044;-66
2021/03/30 01:34:25;;;;;;;13.65;6.47;;;;;;;13.95;68.85;101842.50;5088925;28;22128;-67
2021/03/30 01:36:56;;;;;;;16.45;8.52;;;;;;;13.90;69.20;101833.56;5089189;28;20028;-67
2021/03/30 01:39:25;;;;;;;15.45;8.25;;;;;;;13.91;69.24;101836.22;5091016;28;20126;-67
2021/03/30 01:41:53;;;;;;;14.52;7.22;;;;;;;13.92;69.23;101842.44;5088344;28;20036;-67
2021/03/30 01:44:25;;;;;;;12.82;7.53;;;;;;;13.93;69.26;101839.81;5088288;28;20458;-67
2021/03/30 01:46:54;;;;;;;13.70;8.32;;;;;;;13.90;69.49;101836.22;5086233;28;20460;-67
2021/03/30 01:49:25;;;;;;;13.77;7.32;;;;;;;13.89;69.72;101837.09;5089882;28;20447;-67
2021/03/30 01:51:53;;;;;;;18.30;8.70;;;;;;;13.87;70.00;101834.38;5086810;28;20046;-67
2021/03/30 01:54:22;;;;;;;17.85;8.82;;;;;;;13.89;70.15;101834.44;5088414;28;20040;-67
2021/03/30 01:56:52;;;;;;;14.50;7.85;;;;;;;13.88;70.37;101827.31;5086961;28;20040;-67
2021/03/30 01:59:20;;;;;;;18.33;9.13;;;;;;;13.87;70.44;101823.78;5090800;28;20069;-66
2021/03/30 02:01:49;;;;;;;19.25;8.75;;;;;;;13.85;70.50;101817.53;5089188;28;20131;-67
2021/03/30 02:04:19;;;;;;;16.88;8.02;;;;;;;13.89;70.70;101816.75;5089925;28;20507;-68
2021/03/30 02:06:47;;;;;;;18.63;8.82;;;;;;;13.91;70.91;101816.78;5086268;28;20119;-68
2021/03/30 02:09:19;;;;;;;19.83;10.32;;;;;;;13.89;71.09;101811.44;5075348;28;20028;-67
2021/03/30 02:11:50;;;;;;;12.43;8.30;;;;;;;13.87;71.27;101813.16;5089219;28;20081;-67
2021/03/30 02:14:17;;;;;;;15.95;8.95;;;;;;;13.89;71.36;101810.53;5088791;28;20039;-67
2021/03/30 02:17:00;;;;;;;14.43;8.00;;;;;;;14.03;71.45;101817.00;5088474;28;20452;-67
2021/03/30 02:19:34;;;;;;;14.43;8.45;;;;;;;14.12;71.46;101809.19;5088434;28;20036;-67
2021/03/30 02:22:07;;;;;;;17.05;9.95;;;;;;;14.24;71.47;101814.69;5087828;28;20044;-69
2021/03/30 02:24:36;;;;;;;16.33;8.63;;;;;;;14.29;71.64;101813.03;5088453;28;20035;-67
2021/03/30 02:27:07;;;;;;;15.35;8.88;;;;;;;14.35;71.60;101815.81;5090052;28;20054;-66
2021/03/30 02:29:36;;;;;;;16.88;10.18;;;;;;;14.35;71.70;101815.81;5089948;28;20043;-67
2021/03/30 02:32:09;;;;;;;18.90;9.68;;;;;;;14.41;72.06;101811.50;5085850;28;20040;-67
2021/03/30 02:34:38;;;;;;;18.17;10.38;;;;;;;14.41;72.53;101817.69;5079783;28;20059;-67
2021/03/30 02:37:06;;;;;;;16.33;9.40;;;;;;;14.43;72.69;101820.41;5090075;28;20397;-67
2021/03/30 02:39:33;;;;;;;17.42;9.07;;;;;;;14.48;72.29;101816.94;5088047;28;20036;-67
2021/03/30 02:42:02;;;;;;;19.17;9.43;;;;;;;14.49;72.08;101816.06;5089808;28;20115;-67
2021/03/30 02:44:30;;;;;;;17.67;9.45;;;;;;;14.48;71.98;101813.38;5083624;28;20036;-67
2021/03/30 02:46:58;;;;;;;15.27;9.10;;;;;;;14.46;71.79;101817.78;5083266;28;21733;-67
2021/03/30 02:49:29;;;;;;;16.63;8.05;;;;;;;14.47;71.71;101817.81;5089973;28;20037;-67
2021/03/30 02:51:57;;;;;;;13.88;8.10;;;;;;;14.44;71.10;101816.88;5087591;28;20048;-67
2021/03/30 02:54:27;;;;;;;14.63;7.55;;;;;;;14.42;71.04;101821.25;5085135;28;20048;-66
2021/03/30 02:56:57;;;;;;;16.08;7.72;;;;;;;14.42;70.77;101818.59;5069478;28;20127;-67
2021/03/30 02:59:26;;;;;;;13.77;7.43;;;;;;;14.41;70.49;101827.44;5076380;28;20052;-66
2021/03/30 03:01:53;;;;;;;16.30;7.03;;;;;;;14.38;70.24;101824.72;5088310;28;20051;-67
2021/03/30 03:04:21;;;;;;;14.32;7.82;;;;;;;14.42;69.77;101823.91;5088015;28;20109;-67
2021/03/30 03:06:49;;;;;;;15.65;7.75;;;;;;;14.45;69.46;101823.94;5087821;28;20118;-67
2021/03/30 03:09:17;;;;;;;13.85;7.63;;;;;;;14.44;69.30;101827.50;5084247;28;20037;-67
2021/03/30 03:11:45;;;;;;;18.63;7.22;;;;;;;14.45;69.39;101821.28;5093570;28;20040;-67
2021/03/30 03:14:14;;;;;;;14.63;8.57;;;;;;;14.48;69.42;101810.72;5087026;28;20085;-66
2021/03/30 03:16:42;;;;;;;13.32;7.70;;;;;;;14.46;69.70;101815.13;5082031;28;20106;-67
2021/03/30 03:19:10;;;;;;;17.23;7.70;;;;;;;14.38;70.01;101808.78;5093719;28;20119;-68
2021/03/30 03:21:38;;;;;;;14.13;8.10;;;;;;;14.37;69.96;101805.22;5092758;28;20123;-67
2021/03/30 03:24:11;;;;;;;15.95;8.90;;;;;;;14.36;69.71;101806.06;5091828;28;20036;-67
2021/03/30 03:26:38;;;;;;;11.93;7.13;;;;;;;14.38;69.40;101811.44;5092714;28;20056;-67
2021/03/30 03:29:12;;;;;;;15.88;6.93;;;;;;;14.47;69.05;101800.97;5087093;28;20440;-66
2021/03/30 03:31:39;;;;;;;13.35;6.75;;;;;;;14.48;68.64;101801.00;5093276;28;20067;-68
2021/03/30 03:34:06;;;;;;;11.68;5.53;;;;;;;14.50;68.38;101801.94;5091844;28;20040;-67
2021/03/30 03:36:39;;;;;;;12.38;7.25;;;;;;;14.55;68.17;101802.00;5091370;28;20111;-67
2021/03/30 03:39:10;;;;;;;19.55;7.30;;;;;;;14.49;68.13;101801.91;5091353;28;20043;-67
2021/03/30 03:41:39;;;;;;;12.23;5.70;;;;;;;14.48;67.99;101800.09;5090790;28;20028;-67
2021/03/30 03:44:08;;;;;;;15.18;6.53;;;;;;;14.49;67.53;101802.78;5076200;28;20040;-67
2021/03/30 03:46:35;;;;;;;13.73;7.00;;;;;;;14.49;67.06;101801.91;5088046;28;20047;-67
2021/03/30 03:49:04;;;;;;;12.00;6.13;;;;;;;14.50;66.93;101804.59;5078119;28;20105;-67
2021/03/30 03:51:35;;;;;;;18.30;7.50;;;;;;;14.50;66.69;101804.59;5089296;28;20487;-67
2021/03/30 03:54:07;;;;;;;12.60;6.68;;;;;;;14.50;66.77;101806.34;5074516;28;20071;-67
2021/03/30 03:56:40;;;;;;;13.55;6.60;;;;;;;14.52;66.57;101805.47;5089255;28;20056;-67
2021/03/30 03:59:12;;;;;;;15.95;6.68;;;;;;;14.54;66.41;101805.50;5092745;28;20036;-67
2021/03/30 04:01:47;;;;;;;15.48;6.40;;;;;;;14.56;66.61;101806.44;5088218;28;20619;-68
2021/03/30 04:04:26;;;;;;;14.55;5.93;;;;;;;14.54;66.61;101808.16;5093037;28;20127;-67
2021/03/30 04:06:57;;;;;;;12.07;5.22;;;;;;;14.51;66.00;101805.44;5091608;28;20117;-67
2021/03/30 04:09:26;;;;;;;15.15;5.95;;;;;;;14.47;65.68;101806.28;5092970;28;20036;-66
2021/03/30 04:11:57;;;;;;;14.95;6.13;;;;;;;14.44;65.19;101806.25;5076806;28;20044;-67
2021/03/30 04:14:24;;;;;;;11.93;4.80;;;;;;;14.43;64.52;101799.13;5082263;28;20032;-67
2021/03/30 04:16:52;;;;;;;13.45;6.10;;;;;;;14.47;64.35;101798.31;5091276;28;20054;-67
2021/03/30 04:19:19;;;;;;;10.02;5.68;;;;;;;14.49;64.14;101805.44;5091493;28;20044;-67
2021/03/30 04:21:46;;;;;;;14.30;5.57;;;;;;;14.51;64.40;101801.03;5076004;28;20623;-67
2021/03/30 04:24:13;;;;;;;14.35;6.15;;;;;;;14.58;64.41;101794.94;5072536;28;20043;-67
2021/03/30 04:26:41;;;;;;;13.93;6.13;;;;;;;14.64;64.59;101802.13;5085529;28;20080;-68
2021/03/30 04:29:09;;;;;;;21.05;7.10;;;;;;;14.67;64.58;101795.09;5089200;28;20040;-66
2021/03/30 04:31:37;;;;;;;12.98;5.38;;;;;;;14.70;63.93;101799.59;5089736;28;20113;-67
2021/03/30 04:34:04;;;;;;;11.20;5.15;;;;;;;14.76;63.08;101799.69;5092092;28;20123;-67
2021/03/30 04:36:31;;;;;;;11.70;5.35;;;;;;;14.79;62.37;101794.38;5089887;28;20777;-67
2021/03/30 04:38:58;;;;;;;16.95;6.22;;;;;;;14.82;61.78;101801.53;5089949;28;20502;-67
2021/03/30 04:41:25;;;;;;;12.60;4.55;;;;;;;14.82;61.23;101799.75;5082005;28;20047;-67
2021/03/30 04:43:53;;;;;;;12.32;4.82;;;;;;;14.80;61.32;101797.94;5077008;28;20573;-67
2021/03/30 04:46:21;;;;;;;15.32;5.15;;;;;;;14.85;61.23;101810.44;5091146;28;20036;-67
2021/03/30 04:48:48;;;;;;;14.52;5.70;;;;;;;14.89;60.93;101806.97;5088565;28;20160;-67
2021/03/30 04:51:15;;;;;;;13.68;4.82;;;;;;;14.95;60.44;101806.16;5091325;28;20519;-67
2021/03/30 04:53:42;;;;;;;14.35;4.68;;;;;;;14.98;60.47;101801.75;5089395;28;20044;-67
2021/03/30 04:56:09;;;;;;;11.60;5.65;;;;;;;15.01;60.47;101796.50;5090295;28;20115;-67
2021/03/30 04:58:36;;;;;;;11.68;4.53;;;;;;;15.00;60.29;101788.50;5090629;28;20169;-67
2021/03/30 05:01:04;;;;;;;8.80;4.30;;;;;;;15.04;59.45;101783.22;5077680;28;20040;-67
2021/03/30 05:03:32;;;;;;;10.27;4.57;;;;;;;15.11;59.21;101793.06;5071219;28;20233;-67
2021/03/30 05:05:59;;;;;;;13.60;5.38;;;;;;;15.16;59.16;101788.72;5082713;28;20082;-67
2021/03/30 05:08:26;;;;;;;21.73;7.38;;;;;;;15.23;58.99;101778.19;5091554;28;20552;-67
2021/03/30 05:10:53;;;;;;;21.00;10.40;;;;;;;15.23;58.87;101778.19;5083989;28;20041;-67
2021/03/30 05:13:20;;;;;;;20.55;11.10;;;;;;;15.16;59.05;101774.53;5075909;28;20044;-67
2021/03/30 05:15:47;;;;;;;11.15;4.88;;;;;;;15.16;59.20;101780.72;5089311;28;20512;-68
2021/03/30 05:18:15;;;;;;;12.63;4.75;;;;;;;15.15;58.87;101775.41;5088535;28;20040;-67
2021/03/30 05:20:43;;;;;;;9.85;4.47;;;;;;;15.16;58.46;101774.53;5087942;28;20052;-67
2021/03/30 05:23:10;;;;;;;9.70;4.43;;;;;;;15.16;57.54;101778.06;5088153;28;20051;-67
2021/03/30 05:25:38;;;;;;;13.13;5.05;;;;;;;15.18;57.56;101771.88;5091341;28;20032;-67
2021/03/30 05:28:06;;;;;;;8.80;4.13;;;;;;;15.24;57.64;101775.50;5089642;28;20417;-67
2021/03/30 05:30:33;;;;;;;11.05;3.17;;;;;;;15.38;56.50;101765.03;5089276;28;20508;-67
2021/03/30 05:33:00;;;;;;;7.95;3.15;;;;;;;15.48;54.68;101761.63;5086939;28;20048;-67
2021/03/30 05:35:27;;;;;;;10.13;2.45;;;;;;;15.64;51.92;101765.38;5091090;28;20036;-67
2021/03/30 05:37:55;;;;;;;5.35;2.47;;;;;;;15.88;50.73;101771.84;5083739;28;20097;-67
2021/03/30 05:40:23;;;;;;;7.35;2.47;;;;;;;16.13;49.29;101765.00;5089556;28;20032;-67
2021/03/30 05:42:50;;;;;;;6.13;1.77;;;;;;;16.45;48.40;101757.28;5088272;28;20056;-68
2021/03/30 05:45:20;;;;;;;6.13;2.00;;;;;;;16.73;47.44;101761.06;5089785;28;20032;-67
2021/03/30 05:47:49;;;;;;;6.47;2.10;;;;;;;16.95;46.75;101756.72;5087106;28;20055;-67
2021/03/30 05:50:18;;;;;;;7.95;2.13;;;;;;;17.20;46.22;101755.97;5090772;28;20573;-68
2021/03/30 05:52:49;;;;;;;10.80;1.70;;;;;;;17.37;45.32;101754.25;5080740;28;20032;-68
2021/03/30 05:55:25;;;;;;;5.93;1.58;;;;;;;17.54;44.40;101743.63;5084836;28;20077;-67
2021/03/30 05:57:54;;;;;;;8.98;1.90;;;;;;;17.64;44.01;101753.50;5083436;28;20045;-68
2021/03/30 06:00:23;;;;;;;14.13;3.30;;;;;;;17.85;44.61;101752.66;5073880;28;20066;-68
2021/03/30 06:02:52;;;;;;;8.20;2.78;;;;;;;17.99;44.34;101742.84;5072437;28;20062;-68
2021/03/30 06:05:20;;;;;;;7.38;2.42;;;;;;;17.97;44.41;101765.13;5075536;28;20109;-68
2021/03/30 06:07:47;;;;;;;8.32;2.53;;;;;;;17.96;44.57;101750.88;5078322;28;20040;-68
2021/03/30 06:10:17;;;;;;;7.13;2.58;;;;;;;17.99;45.05;101758.88;5074986;28;20055;-67
2021/03/30 06:12:46;;;;;;;8.75;2.45;;;;;;;18.14;45.24;101758.00;5086926;28;20055;-68
2021/03/30 06:15:14;;;;;;;8.82;2.47;;;;;;;18.18;44.20;101759.81;5085222;28;20044;-68
2021/03/30 06:17:42;;;;;;;5.38;2.05;;;;;;;18.20;43.16;101750.00;5087032;28;20048;-68
2021/03/30 06:20:11;;;;;;;14.05;4.20;;;;;;;18.22;42.32;101749.13;5084937;28;20094;-67
2021/03/30 06:22:58;;;;;;;8.70;3.42;;;;;;;18.44;42.70;101750.00;5072293;28;20113;-67
2021/03/30 06:25:39;;;;;;;7.45;2.53;;;;;;;18.64;42.83;101742.84;5086113;28;20467;-67
2021/03/30 06:28:25;;;;;;;8.32;3.80;;;;;;;18.80;42.83;101749.06;5076109;28;20119;-68
2021/03/30 06:31:12;;;;;;;10.38;4.40;;;;;;;19.04;42.70;101762.38;5075808;28;20047;-68
2021/03/30 06:33:46;;;;;;;7.10;3.10;;;;;;;19.25;42.31;101753.38;5071361;28;20127;-68
2021/03/30 06:36:19;;;;;;;6.15;2.20;;;;;;;19.40;41.40;101752.44;5074869;28;20466;-68
2021/03/30 06:38:56;;;;;;;6.38;2.67;;;;;;;19.49;41.27;101758.66;5081302;28;20040;-68
2021/03/30 06:41:31;;;;;;;7.70;2.33;;;;;;;19.61;41.16;101748.78;5090248;28;20032;-67
2021/03/30 06:44:27;;;;;;;8.73;2.85;;;;;;;19.55;40.67;101749.72;5090990;28;20127;-65
2021/03/30 06:47:00;;;;;;;8.52;2.38;;;;;;;19.47;40.38;101754.22;5093930;28;20407;-65
2021/03/30 06:49:31;;;;;;;6.82;2.20;;;;;;;19.72;40.45;101761.22;5094195;28;20114;-65
2021/03/30 06:51:59;;;;;;;10.48;2.22;;;;;;;19.84;39.55;101755.78;5081427;28;20040;-68
2021/03/30 06:54:26;;;;;;;10.57;3.13;;;;;;;19.89;39.00;101759.31;5079475;28;20040;-68
2021/03/30 06:56:56;;;;;;;8.82;2.00;;;;;;;19.96;39.12;101762.84;5093412;28;20527;-67
2021/03/30 06:59:25;;;;;;;9.25;2.47;;;;;;;20.12;38.71;101745.75;5093902;28;20051;-68
2021/03/30 07:01:54;;;;;;;5.53;1.65;;;;;;;20.23;38.34;101756.38;5084787;28;20120;-68
2021/03/30 07:04:21;;;;;;;5.25;1.80;;;;;;;20.28;38.38;101760.81;5080126;28;20040;-67
2021/03/30 07:06:51;;;;;;;11.50;2.70;;;;;;;20.41;38.52;101766.13;5085260;28;20477;-68
2021/03/30 07:09:18;;;;;;;6.55;1.98;;;;;;;20.54;38.46;101766.00;5093366;28;20036;-68
2021/03/30 07:11:46;;;;;;;7.63;2.13;;;;;;;20.64;38.57;101756.06;5092869;28;20100;-68
2021/03/30 07:14:13;;;;;;;7.22;1.80;;;;;;;20.67;36.92;101759.63;5093664;28;20052;-68
2021/03/30 07:16:49;;;;;;;11.18;3.15;;;;;;;20.81;36.91;101748.69;5091150;28;20055;-68
2021/03/30 07:19:21;;;;;;;12.35;2.58;;;;;;;21.09;37.16;101744.81;5091959;28;20058;-68
2021/03/30 07:21:58;;;;;;;10.38;2.10;;;;;;;21.04;36.61;101761.88;5092313;28;20039;-68
2021/03/30 07:24:29;;;;;;;10.18;2.38;;;;;;;20.97;35.95;101750.34;5092954;28;20048;-68
2021/03/30 07:27:01;;;;;;;14.82;2.45;;;;;;;20.98;34.89;101751.22;5092800;28;20093;-68
2021/03/30 07:29:36;;;;;;;9.50;2.30;;;;;;;21.07;34.43;101761.84;5073257;28;20040;-68
2021/03/30 07:32:12;;;;;;;11.02;3.00;;;;;;;20.95;35.44;101772.72;5085057;28;20047;-68
2021/03/30 07:34:46;;;;;;;9.60;2.22;;;;;;;21.18;35.19;101770.72;5081820;28;20542;-68
2021/03/30 07:37:18;;;;;;;6.65;2.60;;;;;;;20.90;34.27;101772.78;5091939;28;20036;-67
2021/03/30 07:39:49;;;;;;;7.88;1.88;;;;;;;20.84;34.19;101769.28;5087733;28;20062;-68
2021/03/30 07:42:16;;;;;;;8.52;2.42;;;;;;;20.62;34.02;101765.91;5093333;28;20131;-68
2021/03/30 07:44:48;;;;;;;6.45;2.25;;;;;;;20.50;33.50;101766.03;5089409;28;20123;-68
2021/03/30 07:47:18;;;;;;;6.00;1.20;;;;;;;20.14;33.20;101775.25;5080038;28;20119;-65
2021/03/30 07:49:49;;;;;;;6.13;1.98;;;;;;;20.21;32.62;101772.50;5092152;28;20081;-65
2021/03/30 07:52:18;;;;;;;11.50;2.90;;;;;;;20.54;32.70;101768.69;5092547;28;20044;-65
2021/03/30 07:55:17;;;;;;;10.75;3.95;;;;;;;20.87;32.47;101772.78;5090843;28;20040;-68
2021/03/30 07:58:07;;;;;;;10.90;3.15;;;;;;;21.20;32.38;101765.34;5090605;28;20068;-68
2021/03/30 08:00:54;;;;;;;10.32;3.03;;;;;;;21.29;33.06;101771.47;5090146;28;20135;-68
2021/03/30 08:03:26;;;;;;;10.32;3.58;;;;;;;21.48;33.62;101775.69;5091663;28;20381;-68
2021/03/30 08:06:07;;;;;;;10.70;3.92;;;;;;;21.62;33.07;101763.88;5092179;28;20086;-68
2021/03/30 08:08:51;;;;;;;9.55;3.15;;;;;;;21.68;33.06;101763.78;5091632;28;20040;-68
2021/03/30 08:11:52;;;;;;;5.55;1.85;;;;;;;21.41;31.18;101751.59;5091840;28;20123;-68
2021/03/30 08:14:40;;;;;;;6.95;1.60;;;;;;;20.80;31.16;101765.75;5089953;28;20058;-68
2021/03/30 08:17:17;;;;;;;9.05;2.28;;;;;;;20.34;32.78;101770.66;5091823;28;20036;-68
2021/03/30 08:19:57;;;;;;;8.63;3.00;;;;;;;20.41;34.18;101772.38;5075395;28;20485;-68
2021/03/30 08:22:40;;;;;;;4.47;1.95;;;;;;;20.46;34.32;101773.22;5088162;28;20033;-68
2021/03/30 08:25:23;;;;;;;8.13;2.40;;;;;;;20.56;34.39;101769.53;5090102;28;20551;-68
2021/03/30 08:27:50;;;;;;;10.00;2.95;;;;;;;20.75;34.47;101775.63;5077480;28;20487;-68
2021/03/30 08:30:54;;;;;;;7.75;2.30;;;;;;;20.87;35.34;101775.47;5080861;28;20032;-68
2021/03/30 08:33:32;;;;;;;7.75;2.20;;;;;;;21.01;34.60;101756.53;5091645;28;20063;-68
2021/03/30 08:36:20;;;;;;;9.85;2.13;;;;;;;21.34;33.82;101776.78;5090324;28;20435;-68
2021/03/30 08:38:49;;;;;;;7.35;2.22;;;;;;;21.74;33.43;101783.41;5090777;28;20029;-68
2021/03/30 08:41:49;;;;;;;12.43;3.13;;;;;;;22.15;33.10;101780.13;5090675;28;20407;-68
2021/03/30 08:44:18;;;;;;;9.93;2.83;;;;;;;22.39;32.42;101769.88;5081653;28;20040;-68
2021/03/30 08:46:49;;;;;;;7.65;2.28;;;;;;;22.61;32.26;101756.03;5090786;28;20078;-68
2021/03/30 08:49:32;;;;;;;9.60;2.70;;;;;;;22.76;31.44;101756.69;5090414;28;20497;-68
2021/03/30 08:52:03;;;;;;;9.43;2.20;;;;;;;22.82;31.32;101772.75;5089060;28;20119;-68
2021/03/30 08:54:34;;;;;;;8.68;2.65;;;;;;;22.97;31.27;101767.06;5088742;28;20033;-66
2021/03/30 08:57:03;;;;;;;6.00;2.42;;;;;;;22.96;31.18;101760.78;5090088;28;20399;-65
2021/03/30 08:59:32;;;;;;;8.52;2.20;;;;;;;22.86;31.36;101758.28;5091267;28;20092;-67
2021/03/30 09:02:01;;;;;;;8.57;2.53;;;;;;;22.79;31.60;101752.13;5091314;28;20043;-68
2021/03/30 09:04:39;;;;;;;6.97;1.80;;;;;;;22.98;30.93;101761.63;5091208;28;20043;-68
2021/03/30 09:07:09;;;;;;;4.32;1.55;;;;;;;22.84;30.77;101752.91;5084860;28;20472;-68
2021/03/30 09:09:37;;;;;;;8.98;2.38;;;;;;;22.55;31.10;101756.13;5077585;28;20124;-68
2021/03/30 09:12:07;;;;;;;11.60;2.33;;;;;;;22.23;30.68;101751.31;5085488;28;20044;-68
2021/03/30 09:14:34;;;;;;;8.57;2.33;;;;;;;22.19;30.25;101762.13;5090793;28;20409;-67
2021/03/30 09:17:09;;;;;;;6.50;1.52;;;;;;;22.33;30.25;101761.91;5087108;28;20093;-68
2021/03/30 09:19:44;;;;;;;6.97;2.33;;;;;;;22.31;30.65;101740.44;5091221;28;20455;-68
2021/03/30 09:22:19;;;;;;;8.38;1.88;;;;;;;22.06;29.94;101741.72;5091066;28;20048;-67
2021/03/30 09:25:07;;;;;;;10.30;2.80;;;;;;;21.80;30.14;101740.28;5090926;28;20043;-68
2021/03/30 09:27:36;;;;;;;6.30;2.00;;;;;;;21.62;30.53;101747.75;5089717;28;20028;-67
2021/03/30 09:30:07;;;;;;;7.85;1.90;;;;;;;21.61;30.48;101741.47;5090732;28;20029;-68
2021/03/30 09:32:36;;;;;;;7.57;2.00;;;;;;;21.66;30.90;101736.06;5091153;28;20044;-68
2021/03/30 09:35:06;;;;;;;5.00;1.98;;;;;;;21.80;30.81;101732.22;5090127;28;20548;-68
2021/03/30 09:37:44;;;;;;;7.78;2.20;;;;;;;22.04;30.41;101749.84;5089556;28;20097;-68
2021/03/30 09:40:14;;;;;;;10.32;2.85;;;;;;;22.00;30.65;101747.19;5088330;28;20093;-67
2021/03/30 09:42:42;;;;;;;7.07;2.03;;;;;;;22.17;30.42;101739.75;5083816;28;20040;-67
2021/03/30 09:45:12;;;;;;;6.90;1.77;;;;;;;22.12;29.55;101738.97;5090415;28;20039;-68
2021/03/30 09:47:40;;;;;;;6.32;2.22;;;;;;;21.94;29.49;101728.44;5087313;28;20405;-68
2021/03/30 09:50:09;;;;;;;8.05;1.85;;;;;;;21.86;29.61;101755.44;5070441;28;20090;-68
2021/03/30 09:52:38;;;;;;;9.15;1.92;;;;;;;21.72;29.19;101752.97;5070578;28;20533;-68
2021/03/30 09:55:07;;;;;;;7.50;2.53;;;;;;;21.54;29.60;101744.25;5084518;28;20039;-68
2021/03/30 09:57:36;;;;;;;8.32;2.13;;;;;;;21.56;30.47;101746.03;5089002;28;20044;-68
2021/03/30 10:00:06;;;;;;;7.25;2.38;;;;;;;21.36;30.32;101748.09;5088999;28;20040;-68
2021/03/30 10:02:36;;;;;;;9.70;2.97;;;;;;;21.23;29.95;101733.94;5090787;28;20032;-68
2021/03/30 10:05:07;;;;;;;6.90;2.78;;;;;;;21.17;30.25;101734.00;5072610;28;20040;-68
2021/03/30 10:07:36;;;;;;;6.38;2.75;;;;;;;20.74;30.81;101749.72;5072656;28;20519;-68
2021/03/30 10:10:07;;;;;;;10.73;2.90;;;;;;;20.85;31.43;101755.84;5082162;28;20397;-68
2021/03/30 10:12:37;;;;;;;7.00;2.28;;;;;;;20.61;32.36;101723.91;5070539;28;20041;-67
2021/03/30 10:15:06;;;;;;;10.02;2.85;;;;;;;20.35;32.60;101724.13;5069821;28;20036;-67
2021/03/30 10:17:34;;;;;;;7.35;2.38;;;;;;;20.81;32.22;101723.66;5078066;28;20685;-68
2021/03/30 10:20:02;;;;;;;8.55;2.20;;;;;;;20.56;32.18;101726.59;5088216;28;20048;-67
2021/03/30 10:22:36;;;;;;;9.38;2.85;;;;;;;20.02;32.50;101725.25;5087829;28;20036;-67
2021/03/30 10:25:15;;;;;;;9.73;2.83;;;;;;;20.34;32.74;101690.19;5088106;28;20131;-65
2021/03/30 10:27:51;;;;;;;9.05;3.28;;;;;;;20.73;32.14;101717.50;5069778;28;20041;-68
2021/03/30 10:30:28;;;;;;;14.35;2.65;;;;;;;21.00;32.27;101714.50;5069799;28;20029;-68
2021/03/30 10:32:59;;;;;;;11.35;2.88;;;;;;;21.36;32.56;101713.16;5082348;28;20444;-68
2021/03/30 10:35:27;;;;;;;8.43;3.20;;;;;;;21.52;32.12;101725.50;5078216;28;20044;-68
2021/03/30 10:37:54;;;;;;;7.47;3.22;;;;;;;21.67;31.97;101722.56;5087581;28;20128;-68
2021/03/30 10:40:30;;;;;;;7.28;3.17;;;;;;;22.02;31.92;101716.69;5070629;28;20064;-68
2021/03/30 10:42:57;;;;;;;18.27;4.65;;;;;;;22.12;31.79;101718.28;5080814;28;20052;-68
2021/03/30 10:45:31;;;;;;;7.93;2.75;;;;;;;22.27;31.73;101703.72;5070679;28;20037;-68
2021/03/30 10:48:02;;;;;;;12.10;3.30;;;;;;;22.42;31.65;101683.72;5072674;28;20064;-68
2021/03/30 10:50:29;;;;;;;8.48;3.22;;;;;;;22.13;31.58;101725.47;5073170;28;20131;-67
2021/03/30 10:52:56;;;;;;;9.52;3.30;;;;;;;21.85;31.55;101705.28;5076784;28;20048;-68
2021/03/30 10:55:25;;;;;;;11.73;3.80;;;;;;;21.74;31.91;101712.63;5087985;28;20370;-67
2021/03/30 10:57:53;;;;;;;9.07;2.95;;;;;;;21.48;32.48;101695.06;5082779;28;20089;-68
2021/03/30 11:00:20;;;;;;;8.85;3.05;;;;;;;21.60;32.52;101720.00;5071336;28;20517;-68
2021/03/30 11:02:47;;;;;;;7.30;3.03;;;;;;;21.97;32.41;101710.50;5075727;28;20036;-68
2021/03/30 11:05:17;;;;;;;8.30;2.53;;;;;;;22.37;31.62;101704.44;5078569;28;20073;-67
2021/03/30 11:07:44;;;;;;;9.55;3.28;;;;;;;22.48;31.12;101710.50;5073875;28;20069;-68
2021/03/30 11:10:14;;;;;;;15.30;3.42;;;;;;;22.64;30.23;101698.56;5070565;28;20409;-67
2021/03/30 11:12:42;;;;;;;8.07;2.88;;;;;;;22.54;30.28;101694.25;5076758;28;20052;-68
2021/03/30 11:15:11;;;;;;;7.65;2.83;;;;;;;22.64;30.36;101709.31;5072894;28;20726;-68
2021/03/30 11:17:38;;;;;;;8.50;3.03;;;;;;;22.65;30.04;101695.81;5085629;28;20043;-67
2021/03/30 11:20:07;;;;;;;9.90;4.00;;;;;;;22.44;30.03;101679.19;5079915;28;20043;-68
2021/03/30 11:22:34;;;;;;;8.25;2.92;;;;;;;22.45;29.81;101687.22;5074378;28;20417;-68
2021/03/30 11:25:03;;;;;;;11.32;3.13;;;;;;;22.37;30.36;101689.19;5083381;28;20083;-68
2021/03/30 11:27:31;;;;;;;10.02;3.70;;;;;;;22.49;30.80;101705.09;5089790;28;20558;-67
2021/03/30 11:30:07;;;;;;;8.75;4.00;;;;;;;22.66;30.68;101702.97;5090125;28;20412;-68
2021/03/30 11:32:39;;;;;;;8.52;3.63;;;;;;;22.26;30.64;101696.53;5092787;28;20032;-68
2021/03/30 11:35:10;;;;;;;8.27;3.63;;;;;;;21.97;30.93;101693.47;5078202;28;20041;-68
2021/03/30 11:37:53;;;;;;;12.90;3.88;;;;;;;21.40;31.01;101688.91;5085722;28;20062;-67